sensor_id;sensor_type;location;lat;lon;timestamp;P1;durP1;ratioP1;P2;durP2;ratioP2
17991;SDS011;9121;50.926;5.340;2022-12-18T00:02:13;104.83;;;35.47;;
17991;SDS011;9121;50.926;5.340;2022-12-18T00:04:40;100.47;;;32.73;;
17991;SDS011;9121;50.926;5.340;2022-12-18T00:07:08;98.17;;;32.50;;
17991;SDS011;9121;50.926;5.340;2022-12-18T00:09:35;100.53;;;32.87;;
17991;SDS011;9121;50.926;5.340;2022-12-18T00:12:03;94.53;;;33.50;;
17991;SDS011;9121;50.926;5.340;2022-12-18T00:14:30;90.60;;;32.50;;
17991;SDS011;9121;50.926;5.340;2022-12-18T00:16:57;100.30;;;32.13;;
17991;SDS011;9121;50.926;5.340;2022-12-18T00:19:25;100.40;;;34.63;;
17991;SDS011;9121;50.926;5.340;2022-12-18T00:21:53;95.20;;;31.43;;
17991;SDS011;9121;50.926;5.340;2022-12-18T00:24:21;90.37;;;31.03;;
17991;SDS011;9121;50.926;5.340;2022-12-18T00:26:48;98.67;;;32.93;;
17991;SDS011;9121;50.926;5.340;2022-12-18T00:29:15;88.77;;;32.10;;
17991;SDS011;9121;50.926;5.340;2022-12-18T00:31:42;106.63;;;33.83;;
17991;SDS011;9121;50.926;5.340;2022-12-18T00:34:09;90.80;;;33.97;;
17991;SDS011;9121;50.926;5.340;2022-12-18T00:36:37;94.03;;;32.77;;
17991;SDS011;9121;50.926;5.340;2022-12-18T00:39:04;90.07;;;31.20;;
17991;SDS011;9121;50.926;5.340;2022-12-18T00:41:33;122.33;;;33.80;;
17991;SDS011;9121;50.926;5.340;2022-12-18T00:44:18;101.83;;;33.00;;
17991;SDS011;9121;50.926;5.340;2022-12-18T00:46:46;91.33;;;31.33;;
17991;SDS011;9121;50.926;5.340;2022-12-18T00:49:14;101.17;;;33.40;;
17991;SDS011;9121;50.926;5.340;2022-12-18T00:51:41;95.17;;;30.83;;
17991;SDS011;9121;50.926;5.340;2022-12-18T00:54:08;98.60;;;33.43;;
17991;SDS011;9121;50.926;5.340;2022-12-18T00:56:37;91.47;;;31.83;;
17991;SDS011;9121;50.926;5.340;2022-12-18T00:59:05;90.23;;;31.13;;
17991;SDS011;9121;50.926;5.340;2022-12-18T01:01:32;88.93;;;32.07;;
17991;SDS011;9121;50.926;5.340;2022-12-18T01:03:59;88.53;;;33.10;;
17991;SDS011;9121;50.926;5.340;2022-12-18T01:06:27;96.77;;;33.53;;
17991;SDS011;9121;50.926;5.340;2022-12-18T01:08:54;91.33;;;34.17;;
17991;SDS011;9121;50.926;5.340;2022-12-18T01:11:21;84.23;;;29.03;;
17991;SDS011;9121;50.926;5.340;2022-12-18T01:13:51;94.20;;;32.00;;
17991;SDS011;9121;50.926;5.340;2022-12-18T01:16:18;83.50;;;30.73;;
17991;SDS011;9121;50.926;5.340;2022-12-18T01:18:46;95.43;;;31.57;;
17991;SDS011;9121;50.926;5.340;2022-12-18T01:21:14;94.07;;;31.63;;
17991;SDS011;9121;50.926;5.340;2022-12-18T01:23:45;82.70;;;29.97;;
17991;SDS011;9121;50.926;5.340;2022-12-18T01:26:14;93.17;;;31.27;;
17991;SDS011;9121;50.926;5.340;2022-12-18T01:28:42;86.70;;;31.33;;
17991;SDS011;9121;50.926;5.340;2022-12-18T01:31:15;84.47;;;29.93;;
17991;SDS011;9121;50.926;5.340;2022-12-18T01:33:44;86.67;;;31.13;;
17991;SDS011;9121;50.926;5.340;2022-12-18T01:36:15;84.83;;;29.93;;
17991;SDS011;9121;50.926;5.340;2022-12-18T01:38:44;88.73;;;32.03;;
17991;SDS011;9121;50.926;5.340;2022-12-18T01:41:11;86.53;;;30.90;;
17991;SDS011;9121;50.926;5.340;2022-12-18T01:43:42;88.47;;;30.53;;
17991;SDS011;9121;50.926;5.340;2022-12-18T01:46:11;90.90;;;31.23;;
17991;SDS011;9121;50.926;5.340;2022-12-18T01:48:40;85.37;;;31.33;;
17991;SDS011;9121;50.926;5.340;2022-12-18T01:51:09;81.93;;;29.50;;
17991;SDS011;9121;50.926;5.340;2022-12-18T01:53:37;80.07;;;29.63;;
17991;SDS011;9121;50.926;5.340;2022-12-18T01:56:07;94.17;;;30.20;;
17991;SDS011;9121;50.926;5.340;2022-12-18T01:58:36;84.13;;;30.57;;
17991;SDS011;9121;50.926;5.340;2022-12-18T02:01:07;86.33;;;30.60;;
17991;SDS011;9121;50.926;5.340;2022-12-18T02:03:35;80.00;;;27.63;;
17991;SDS011;9121;50.926;5.340;2022-12-18T02:06:05;88.20;;;29.70;;
17991;SDS011;9121;50.926;5.340;2022-12-18T02:08:37;76.23;;;28.77;;
17991;SDS011;9121;50.926;5.340;2022-12-18T02:11:13;84.47;;;30.20;;
17991;SDS011;9121;50.926;5.340;2022-12-18T02:13:52;87.57;;;30.07;;
17991;SDS011;9121;50.926;5.340;2022-12-18T02:16:27;74.07;;;29.63;;
17991;SDS011;9121;50.926;5.340;2022-12-18T02:19:01;77.37;;;30.37;;
17991;SDS011;9121;50.926;5.340;2022-12-18T02:21:36;77.77;;;29.60;;
17991;SDS011;9121;50.926;5.340;2022-12-18T02:24:15;75.67;;;28.83;;
17991;SDS011;9121;50.926;5.340;2022-12-18T02:26:52;79.30;;;28.60;;
17991;SDS011;9121;50.926;5.340;2022-12-18T02:29:23;71.23;;;28.47;;
17991;SDS011;9121;50.926;5.340;2022-12-18T02:31:53;74.10;;;28.27;;
17991;SDS011;9121;50.926;5.340;2022-12-18T02:34:24;71.73;;;26.80;;
17991;SDS011;9121;50.926;5.340;2022-12-18T02:36:55;78.07;;;29.53;;
17991;SDS011;9121;50.926;5.340;2022-12-18T02:39:25;67.30;;;26.67;;
17991;SDS011;9121;50.926;5.340;2022-12-18T02:41:56;70.33;;;26.83;;
17991;SDS011;9121;50.926;5.340;2022-12-18T02:44:23;69.73;;;26.57;;
17991;SDS011;9121;50.926;5.340;2022-12-18T02:46:51;70.37;;;26.20;;
17991;SDS011;9121;50.926;5.340;2022-12-18T02:49:26;70.67;;;25.70;;
17991;SDS011;9121;50.926;5.340;2022-12-18T02:52:02;73.87;;;26.10;;
17991;SDS011;9121;50.926;5.340;2022-12-18T02:57:28;62.40;;;24.87;;
17991;SDS011;9121;50.926;5.340;2022-12-18T03:00:03;69.63;;;25.20;;
17991;SDS011;9121;50.926;5.340;2022-12-18T03:02:34;64.43;;;22.67;;
17991;SDS011;9121;50.926;5.340;2022-12-18T03:05:07;62.70;;;24.20;;
17991;SDS011;9121;50.926;5.340;2022-12-18T03:07:41;65.53;;;22.77;;
17991;SDS011;9121;50.926;5.340;2022-12-18T03:10:14;68.67;;;23.27;;
17991;SDS011;9121;50.926;5.340;2022-12-18T03:12:47;64.40;;;22.93;;
17991;SDS011;9121;50.926;5.340;2022-12-18T03:15:19;52.43;;;22.20;;
17991;SDS011;9121;50.926;5.340;2022-12-18T03:17:51;58.10;;;22.87;;
17991;SDS011;9121;50.926;5.340;2022-12-18T03:20:23;57.77;;;22.13;;
17991;SDS011;9121;50.926;5.340;2022-12-18T03:22:59;66.20;;;25.87;;
17991;SDS011;9121;50.926;5.340;2022-12-18T03:25:30;60.50;;;22.83;;
17991;SDS011;9121;50.926;5.340;2022-12-18T03:28:00;56.53;;;21.33;;
17991;SDS011;9121;50.926;5.340;2022-12-18T03:30:30;59.60;;;22.27;;
17991;SDS011;9121;50.926;5.340;2022-12-18T03:33:05;56.30;;;21.93;;
17991;SDS011;9121;50.926;5.340;2022-12-18T03:35:36;56.37;;;21.63;;
17991;SDS011;9121;50.926;5.340;2022-12-18T03:38:06;55.47;;;21.53;;
17991;SDS011;9121;50.926;5.340;2022-12-18T03:40:35;54.77;;;22.27;;
17991;SDS011;9121;50.926;5.340;2022-12-18T03:43:16;53.87;;;21.27;;
17991;SDS011;9121;50.926;5.340;2022-12-18T03:45:48;61.73;;;22.67;;
17991;SDS011;9121;50.926;5.340;2022-12-18T03:48:19;55.03;;;21.97;;
17991;SDS011;9121;50.926;5.340;2022-12-18T03:50:54;58.00;;;21.83;;
17991;SDS011;9121;50.926;5.340;2022-12-18T03:53:26;58.43;;;21.93;;
17991;SDS011;9121;50.926;5.340;2022-12-18T03:55:59;54.53;;;20.47;;
17991;SDS011;9121;50.926;5.340;2022-12-18T03:58:29;55.30;;;20.80;;
17991;SDS011;9121;50.926;5.340;2022-12-18T04:01:00;55.33;;;21.27;;
17991;SDS011;9121;50.926;5.340;2022-12-18T04:03:34;55.07;;;20.70;;
17991;SDS011;9121;50.926;5.340;2022-12-18T04:06:02;57.00;;;21.57;;
17991;SDS011;9121;50.926;5.340;2022-12-18T04:08:31;56.77;;;20.53;;
17991;SDS011;9121;50.926;5.340;2022-12-18T04:10:59;52.73;;;21.50;;
17991;SDS011;9121;50.926;5.340;2022-12-18T04:13:29;56.83;;;21.87;;
17991;SDS011;9121;50.926;5.340;2022-12-18T04:16:00;56.67;;;21.67;;
17991;SDS011;9121;50.926;5.340;2022-12-18T04:18:27;56.30;;;21.87;;
17991;SDS011;9121;50.926;5.340;2022-12-18T04:20:54;51.97;;;21.30;;
17991;SDS011;9121;50.926;5.340;2022-12-18T04:23:21;59.47;;;21.57;;
17991;SDS011;9121;50.926;5.340;2022-12-18T04:25:48;60.63;;;21.17;;
17991;SDS011;9121;50.926;5.340;2022-12-18T04:28:15;60.77;;;21.83;;
17991;SDS011;9121;50.926;5.340;2022-12-18T04:30:43;60.83;;;22.17;;
17991;SDS011;9121;50.926;5.340;2022-12-18T04:33:10;52.37;;;20.57;;
17991;SDS011;9121;50.926;5.340;2022-12-18T04:35:38;55.73;;;21.27;;
17991;SDS011;9121;50.926;5.340;2022-12-18T04:38:06;50.33;;;19.97;;
17991;SDS011;9121;50.926;5.340;2022-12-18T04:40:34;53.80;;;20.27;;
17991;SDS011;9121;50.926;5.340;2022-12-18T04:43:01;54.23;;;19.87;;
17991;SDS011;9121;50.926;5.340;2022-12-18T04:45:29;56.03;;;21.27;;
17991;SDS011;9121;50.926;5.340;2022-12-18T04:47:58;60.10;;;21.20;;
17991;SDS011;9121;50.926;5.340;2022-12-18T04:50:24;57.07;;;21.27;;
17991;SDS011;9121;50.926;5.340;2022-12-18T04:52:52;53.30;;;20.37;;
17991;SDS011;9121;50.926;5.340;2022-12-18T04:55:19;51.90;;;19.90;;
17991;SDS011;9121;50.926;5.340;2022-12-18T04:57:54;57.40;;;20.77;;
17991;SDS011;9121;50.926;5.340;2022-12-18T05:00:21;54.10;;;19.97;;
17991;SDS011;9121;50.926;5.340;2022-12-18T05:02:48;50.70;;;19.93;;
17991;SDS011;9121;50.926;5.340;2022-12-18T05:05:16;49.00;;;19.10;;
17991;SDS011;9121;50.926;5.340;2022-12-18T05:07:43;54.07;;;19.60;;
17991;SDS011;9121;50.926;5.340;2022-12-18T05:10:10;49.83;;;19.17;;
17991;SDS011;9121;50.926;5.340;2022-12-18T05:12:37;52.37;;;19.37;;
17991;SDS011;9121;50.926;5.340;2022-12-18T05:15:23;48.23;;;19.17;;
17991;SDS011;9121;50.926;5.340;2022-12-18T05:17:50;48.57;;;18.13;;
17991;SDS011;9121;50.926;5.340;2022-12-18T05:20:19;50.23;;;18.67;;
17991;SDS011;9121;50.926;5.340;2022-12-18T05:22:46;47.30;;;17.93;;
17991;SDS011;9121;50.926;5.340;2022-12-18T05:25:13;48.53;;;18.23;;
17991;SDS011;9121;50.926;5.340;2022-12-18T05:27:40;45.60;;;17.37;;
17991;SDS011;9121;50.926;5.340;2022-12-18T05:30:08;46.47;;;16.70;;
17991;SDS011;9121;50.926;5.340;2022-12-18T05:32:35;42.33;;;17.83;;
17991;SDS011;9121;50.926;5.340;2022-12-18T05:35:03;49.57;;;19.40;;
17991;SDS011;9121;50.926;5.340;2022-12-18T05:37:33;44.13;;;16.70;;
17991;SDS011;9121;50.926;5.340;2022-12-18T05:40:00;39.27;;;15.83;;
17991;SDS011;9121;50.926;5.340;2022-12-18T05:42:27;44.30;;;17.53;;
17991;SDS011;9121;50.926;5.340;2022-12-18T05:44:54;45.37;;;17.47;;
17991;SDS011;9121;50.926;5.340;2022-12-18T05:47:21;49.60;;;18.33;;
17991;SDS011;9121;50.926;5.340;2022-12-18T05:49:48;49.20;;;17.60;;
17991;SDS011;9121;50.926;5.340;2022-12-18T05:52:18;42.63;;;16.57;;
17991;SDS011;9121;50.926;5.340;2022-12-18T05:54:47;37.50;;;15.37;;
17991;SDS011;9121;50.926;5.340;2022-12-18T05:57:14;45.20;;;15.43;;
17991;SDS011;9121;50.926;5.340;2022-12-18T05:59:41;39.40;;;15.33;;
17991;SDS011;9121;50.926;5.340;2022-12-18T06:02:08;37.90;;;16.67;;
17991;SDS011;9121;50.926;5.340;2022-12-18T06:04:35;33.60;;;15.53;;
17991;SDS011;9121;50.926;5.340;2022-12-18T06:07:02;36.53;;;15.40;;
17991;SDS011;9121;50.926;5.340;2022-12-18T06:09:29;36.03;;;15.77;;
17991;SDS011;9121;50.926;5.340;2022-12-18T06:11:57;42.87;;;15.40;;
17991;SDS011;9121;50.926;5.340;2022-12-18T06:14:24;36.03;;;15.77;;
17991;SDS011;9121;50.926;5.340;2022-12-18T06:16:51;39.17;;;15.70;;
17991;SDS011;9121;50.926;5.340;2022-12-18T06:19:18;41.57;;;16.00;;
17991;SDS011;9121;50.926;5.340;2022-12-18T06:21:45;43.23;;;16.23;;
17991;SDS011;9121;50.926;5.340;2022-12-18T06:24:12;46.20;;;16.13;;
17991;SDS011;9121;50.926;5.340;2022-12-18T06:26:39;34.13;;;14.17;;
17991;SDS011;9121;50.926;5.340;2022-12-18T06:29:08;38.97;;;15.47;;
17991;SDS011;9121;50.926;5.340;2022-12-18T06:31:35;37.60;;;14.43;;
17991;SDS011;9121;50.926;5.340;2022-12-18T06:34:02;36.03;;;14.73;;
17991;SDS011;9121;50.926;5.340;2022-12-18T06:36:29;36.63;;;15.57;;
17991;SDS011;9121;50.926;5.340;2022-12-18T06:38:56;36.43;;;14.83;;
17991;SDS011;9121;50.926;5.340;2022-12-18T06:41:23;30.83;;;13.30;;
17991;SDS011;9121;50.926;5.340;2022-12-18T06:43:50;31.60;;;13.97;;
17991;SDS011;9121;50.926;5.340;2022-12-18T06:46:19;32.23;;;13.37;;
17991;SDS011;9121;50.926;5.340;2022-12-18T06:48:49;38.13;;;14.60;;
17991;SDS011;9121;50.926;5.340;2022-12-18T06:51:19;31.87;;;13.17;;
17991;SDS011;9121;50.926;5.340;2022-12-18T06:53:47;32.10;;;12.40;;
17991;SDS011;9121;50.926;5.340;2022-12-18T06:56:14;31.20;;;13.27;;
17991;SDS011;9121;50.926;5.340;2022-12-18T06:58:41;29.43;;;13.00;;
17991;SDS011;9121;50.926;5.340;2022-12-18T07:01:09;30.40;;;13.53;;
17991;SDS011;9121;50.926;5.340;2022-12-18T07:03:38;40.57;;;12.53;;
17991;SDS011;9121;50.926;5.340;2022-12-18T07:06:11;35.77;;;12.83;;
17991;SDS011;9121;50.926;5.340;2022-12-18T07:08:39;30.83;;;12.57;;
17991;SDS011;9121;50.926;5.340;2022-12-18T07:11:07;31.37;;;13.37;;
17991;SDS011;9121;50.926;5.340;2022-12-18T07:13:33;34.80;;;12.67;;
17991;SDS011;9121;50.926;5.340;2022-12-18T07:16:07;27.73;;;12.80;;
17991;SDS011;9121;50.926;5.340;2022-12-18T07:18:36;31.13;;;13.37;;
17991;SDS011;9121;50.926;5.340;2022-12-18T07:21:05;25.90;;;12.07;;
17991;SDS011;9121;50.926;5.340;2022-12-18T07:23:33;36.50;;;12.47;;
17991;SDS011;9121;50.926;5.340;2022-12-18T07:26:01;37.60;;;13.57;;
17991;SDS011;9121;50.926;5.340;2022-12-18T07:28:29;36.80;;;14.53;;
17991;SDS011;9121;50.926;5.340;2022-12-18T07:30:57;36.23;;;13.20;;
17991;SDS011;9121;50.926;5.340;2022-12-18T07:33:25;34.47;;;13.23;;
17991;SDS011;9121;50.926;5.340;2022-12-18T07:35:52;37.00;;;13.47;;
17991;SDS011;9121;50.926;5.340;2022-12-18T07:38:20;43.87;;;14.10;;
17991;SDS011;9121;50.926;5.340;2022-12-18T07:40:47;31.67;;;14.10;;
17991;SDS011;9121;50.926;5.340;2022-12-18T07:43:14;31.67;;;13.03;;
17991;SDS011;9121;50.926;5.340;2022-12-18T07:45:41;30.97;;;13.67;;
17991;SDS011;9121;50.926;5.340;2022-12-18T07:48:09;33.17;;;12.17;;
17991;SDS011;9121;50.926;5.340;2022-12-18T07:50:36;28.57;;;13.03;;
17991;SDS011;9121;50.926;5.340;2022-12-18T07:53:03;29.10;;;12.40;;
17991;SDS011;9121;50.926;5.340;2022-12-18T07:55:31;27.30;;;11.67;;
17991;SDS011;9121;50.926;5.340;2022-12-18T07:58:00;29.10;;;11.83;;
17991;SDS011;9121;50.926;5.340;2022-12-18T08:00:28;33.47;;;12.37;;
17991;SDS011;9121;50.926;5.340;2022-12-18T08:02:55;27.20;;;10.93;;
17991;SDS011;9121;50.926;5.340;2022-12-18T08:05:22;32.10;;;12.23;;
17991;SDS011;9121;50.926;5.340;2022-12-18T08:07:49;26.53;;;11.50;;
17991;SDS011;9121;50.926;5.340;2022-12-18T08:10:16;30.63;;;11.87;;
17991;SDS011;9121;50.926;5.340;2022-12-18T08:12:45;28.63;;;11.43;;
17991;SDS011;9121;50.926;5.340;2022-12-18T08:15:15;29.63;;;11.70;;
17991;SDS011;9121;50.926;5.340;2022-12-18T08:17:42;23.40;;;10.27;;
17991;SDS011;9121;50.926;5.340;2022-12-18T08:20:09;23.50;;;11.30;;
17991;SDS011;9121;50.926;5.340;2022-12-18T08:22:40;28.50;;;11.23;;
17991;SDS011;9121;50.926;5.340;2022-12-18T08:25:07;25.83;;;10.70;;
17991;SDS011;9121;50.926;5.340;2022-12-18T08:27:34;31.20;;;10.60;;
17991;SDS011;9121;50.926;5.340;2022-12-18T08:30:03;26.17;;;10.30;;
17991;SDS011;9121;50.926;5.340;2022-12-18T08:32:31;22.20;;;10.47;;
17991;SDS011;9121;50.926;5.340;2022-12-18T08:34:58;23.53;;;11.23;;
17991;SDS011;9121;50.926;5.340;2022-12-18T08:37:25;24.70;;;10.33;;
17991;SDS011;9121;50.926;5.340;2022-12-18T08:39:52;24.10;;;11.30;;
17991;SDS011;9121;50.926;5.340;2022-12-18T08:42:19;23.93;;;10.87;;
17991;SDS011;9121;50.926;5.340;2022-12-18T08:45:06;28.70;;;12.00;;
17991;SDS011;9121;50.926;5.340;2022-12-18T08:47:34;26.83;;;11.00;;
17991;SDS011;9121;50.926;5.340;2022-12-18T08:50:01;26.97;;;10.60;;
17991;SDS011;9121;50.926;5.340;2022-12-18T08:52:28;29.03;;;10.87;;
17991;SDS011;9121;50.926;5.340;2022-12-18T08:54:57;23.50;;;9.87;;
17991;SDS011;9121;50.926;5.340;2022-12-18T08:57:24;32.20;;;10.60;;
17991;SDS011;9121;50.926;5.340;2022-12-18T08:59:51;24.87;;;11.87;;
17991;SDS011;9121;50.926;5.340;2022-12-18T09:02:19;27.03;;;11.03;;
17991;SDS011;9121;50.926;5.340;2022-12-18T09:04:46;27.30;;;10.57;;
17991;SDS011;9121;50.926;5.340;2022-12-18T09:07:13;22.87;;;10.87;;
17991;SDS011;9121;50.926;5.340;2022-12-18T09:09:40;28.13;;;11.60;;
17991;SDS011;9121;50.926;5.340;2022-12-18T09:12:07;32.30;;;11.83;;
17991;SDS011;9121;50.926;5.340;2022-12-18T09:14:35;24.53;;;11.43;;
17991;SDS011;9121;50.926;5.340;2022-12-18T09:17:02;32.67;;;11.67;;
17991;SDS011;9121;50.926;5.340;2022-12-18T09:19:30;25.73;;;10.73;;
17991;SDS011;9121;50.926;5.340;2022-12-18T09:21:57;25.73;;;11.70;;
17991;SDS011;9121;50.926;5.340;2022-12-18T09:24:24;25.13;;;10.43;;
17991;SDS011;9121;50.926;5.340;2022-12-18T09:26:52;26.63;;;11.43;;
17991;SDS011;9121;50.926;5.340;2022-12-18T09:29:20;29.13;;;11.77;;
17991;SDS011;9121;50.926;5.340;2022-12-18T09:31:47;27.30;;;11.47;;
17991;SDS011;9121;50.926;5.340;2022-12-18T09:34:15;35.77;;;15.63;;
17991;SDS011;9121;50.926;5.340;2022-12-18T09:36:44;29.00;;;10.77;;
17991;SDS011;9121;50.926;5.340;2022-12-18T09:39:11;25.53;;;11.13;;
17991;SDS011;9121;50.926;5.340;2022-12-18T09:41:43;27.17;;;10.73;;
17991;SDS011;9121;50.926;5.340;2022-12-18T09:44:20;23.67;;;10.97;;
17991;SDS011;9121;50.926;5.340;2022-12-18T09:46:54;27.77;;;11.07;;
17991;SDS011;9121;50.926;5.340;2022-12-18T09:49:29;53.10;;;11.57;;
17991;SDS011;9121;50.926;5.340;2022-12-18T09:52:02;30.37;;;11.83;;
17991;SDS011;9121;50.926;5.340;2022-12-18T09:54:35;26.67;;;11.00;;
17991;SDS011;9121;50.926;5.340;2022-12-18T09:57:10;22.90;;;11.03;;
17991;SDS011;9121;50.926;5.340;2022-12-18T09:59:40;23.40;;;10.87;;
17991;SDS011;9121;50.926;5.340;2022-12-18T10:02:17;22.27;;;10.97;;
17991;SDS011;9121;50.926;5.340;2022-12-18T10:04:48;26.90;;;11.00;;
17991;SDS011;9121;50.926;5.340;2022-12-18T10:07:32;22.57;;;10.17;;
17991;SDS011;9121;50.926;5.340;2022-12-18T10:10:10;24.20;;;10.50;;
17991;SDS011;9121;50.926;5.340;2022-12-18T10:12:44;29.87;;;11.47;;
17991;SDS011;9121;50.926;5.340;2022-12-18T10:15:22;28.13;;;10.83;;
17991;SDS011;9121;50.926;5.340;2022-12-18T10:17:55;33.17;;;12.23;;
17991;SDS011;9121;50.926;5.340;2022-12-18T10:20:29;25.73;;;10.53;;
17991;SDS011;9121;50.926;5.340;2022-12-18T10:23:03;23.73;;;11.07;;
17991;SDS011;9121;50.926;5.340;2022-12-18T10:25:50;27.77;;;11.83;;
17991;SDS011;9121;50.926;5.340;2022-12-18T10:28:21;27.40;;;11.77;;
17991;SDS011;9121;50.926;5.340;2022-12-18T10:30:50;24.33;;;11.07;;
17991;SDS011;9121;50.926;5.340;2022-12-18T10:33:18;27.43;;;12.23;;
17991;SDS011;9121;50.926;5.340;2022-12-18T10:35:47;33.53;;;12.47;;
17991;SDS011;9121;50.926;5.340;2022-12-18T10:38:26;26.17;;;12.33;;
17991;SDS011;9121;50.926;5.340;2022-12-18T10:40:55;28.13;;;14.02;;
17991;SDS011;9121;50.926;5.340;2022-12-18T10:43:25;25.83;;;12.97;;
17991;SDS011;9121;50.926;5.340;2022-12-18T10:46:00;24.90;;;12.53;;
17991;SDS011;9121;50.926;5.340;2022-12-18T10:48:31;25.90;;;12.83;;
17991;SDS011;9121;50.926;5.340;2022-12-18T10:50:59;28.00;;;12.03;;
17991;SDS011;9121;50.926;5.340;2022-12-18T10:53:28;26.07;;;12.13;;
17991;SDS011;9121;50.926;5.340;2022-12-18T10:55:57;33.87;;;13.07;;
17991;SDS011;9121;50.926;5.340;2022-12-18T10:58:26;26.23;;;12.97;;
17991;SDS011;9121;50.926;5.340;2022-12-18T11:01:04;23.70;;;12.27;;
17991;SDS011;9121;50.926;5.340;2022-12-18T11:03:33;29.13;;;12.10;;
17991;SDS011;9121;50.926;5.340;2022-12-18T11:06:03;29.73;;;13.27;;
17991;SDS011;9121;50.926;5.340;2022-12-18T11:08:33;29.47;;;12.27;;
17991;SDS011;9121;50.926;5.340;2022-12-18T11:11:00;27.77;;;12.63;;
17991;SDS011;9121;50.926;5.340;2022-12-18T11:13:29;24.23;;;11.77;;
17991;SDS011;9121;50.926;5.340;2022-12-18T11:15:57;31.40;;;13.17;;
17991;SDS011;9121;50.926;5.340;2022-12-18T11:18:25;27.33;;;12.23;;
17991;SDS011;9121;50.926;5.340;2022-12-18T11:20:55;25.73;;;12.03;;
17991;SDS011;9121;50.926;5.340;2022-12-18T11:23:23;27.60;;;11.90;;
17991;SDS011;9121;50.926;5.340;2022-12-18T11:25:53;27.83;;;11.80;;
17991;SDS011;9121;50.926;5.340;2022-12-18T11:28:27;26.40;;;12.20;;
17991;SDS011;9121;50.926;5.340;2022-12-18T11:31:11;25.17;;;12.13;;
17991;SDS011;9121;50.926;5.340;2022-12-18T11:33:44;36.70;;;13.33;;
17991;SDS011;9121;50.926;5.340;2022-12-18T11:36:15;35.53;;;12.37;;
17991;SDS011;9121;50.926;5.340;2022-12-18T11:38:43;30.30;;;12.70;;
17991;SDS011;9121;50.926;5.340;2022-12-18T11:41:15;28.20;;;11.90;;
17991;SDS011;9121;50.926;5.340;2022-12-18T11:44:10;28.10;;;12.50;;
17991;SDS011;9121;50.926;5.340;2022-12-18T11:46:43;36.10;;;12.53;;
17991;SDS011;9121;50.926;5.340;2022-12-18T11:49:17;28.80;;;13.27;;
17991;SDS011;9121;50.926;5.340;2022-12-18T11:51:50;35.40;;;13.40;;
17991;SDS011;9121;50.926;5.340;2022-12-18T11:54:22;29.33;;;12.40;;
17991;SDS011;9121;50.926;5.340;2022-12-18T11:56:51;26.50;;;12.30;;
17991;SDS011;9121;50.926;5.340;2022-12-18T11:59:25;27.27;;;13.00;;
17991;SDS011;9121;50.926;5.340;2022-12-18T12:02:00;28.33;;;12.27;;
17991;SDS011;9121;50.926;5.340;2022-12-18T12:04:43;31.20;;;12.47;;
17991;SDS011;9121;50.926;5.340;2022-12-18T12:07:31;28.50;;;12.30;;
17991;SDS011;9121;50.926;5.340;2022-12-18T12:10:08;28.63;;;12.93;;
17991;SDS011;9121;50.926;5.340;2022-12-18T12:12:48;28.83;;;12.27;;
17991;SDS011;9121;50.926;5.340;2022-12-18T12:15:27;28.47;;;12.50;;
17991;SDS011;9121;50.926;5.340;2022-12-18T12:18:05;30.30;;;12.33;;
17991;SDS011;9121;50.926;5.340;2022-12-18T12:20:42;27.23;;;12.40;;
17991;SDS011;9121;50.926;5.340;2022-12-18T12:23:20;26.70;;;11.87;;
17991;SDS011;9121;50.926;5.340;2022-12-18T12:25:59;27.87;;;13.17;;
17991;SDS011;9121;50.926;5.340;2022-12-18T12:31:20;28.97;;;13.00;;
17991;SDS011;9121;50.926;5.340;2022-12-18T12:33:59;29.27;;;12.87;;
17991;SDS011;9121;50.926;5.340;2022-12-18T12:36:35;29.50;;;13.50;;
17991;SDS011;9121;50.926;5.340;2022-12-18T12:39:16;25.93;;;12.70;;
17991;SDS011;9121;50.926;5.340;2022-12-18T12:41:46;32.45;;;15.10;;
17991;SDS011;9121;50.926;5.340;2022-12-18T12:44:33;33.13;;;14.43;;
17991;SDS011;9121;50.926;5.340;2022-12-18T12:47:07;29.00;;;13.47;;
17991;SDS011;9121;50.926;5.340;2022-12-18T12:49:41;33.53;;;13.70;;
17991;SDS011;9121;50.926;5.340;2022-12-18T12:52:13;29.97;;;13.23;;
17991;SDS011;9121;50.926;5.340;2022-12-18T12:54:43;29.37;;;13.07;;
17991;SDS011;9121;50.926;5.340;2022-12-18T12:57:12;31.03;;;14.73;;
17991;SDS011;9121;50.926;5.340;2022-12-18T12:59:45;28.30;;;13.00;;
17991;SDS011;9121;50.926;5.340;2022-12-18T13:02:18;31.23;;;13.70;;
17991;SDS011;9121;50.926;5.340;2022-12-18T13:04:49;99.77;;;17.00;;
17991;SDS011;9121;50.926;5.340;2022-12-18T13:07:26;35.37;;;14.17;;
17991;SDS011;9121;50.926;5.340;2022-12-18T13:10:12;34.87;;;14.63;;
17991;SDS011;9121;50.926;5.340;2022-12-18T13:12:55;36.27;;;14.47;;
17991;SDS011;9121;50.926;5.340;2022-12-18T13:15:25;33.20;;;14.90;;
17991;SDS011;9121;50.926;5.340;2022-12-18T13:18:03;31.50;;;14.63;;
17991;SDS011;9121;50.926;5.340;2022-12-18T13:20:32;36.23;;;14.43;;
17991;SDS011;9121;50.926;5.340;2022-12-18T13:23:01;30.77;;;14.70;;
17991;SDS011;9121;50.926;5.340;2022-12-18T13:25:45;34.07;;;14.53;;
17991;SDS011;9121;50.926;5.340;2022-12-18T13:28:12;30.40;;;14.60;;
17991;SDS011;9121;50.926;5.340;2022-12-18T13:30:44;39.53;;;15.50;;
17991;SDS011;9121;50.926;5.340;2022-12-18T13:36:32;36.43;;;14.07;;
17991;SDS011;9121;50.926;5.340;2022-12-18T13:45:35;39.27;;;15.87;;
17991;SDS011;9121;50.926;5.340;2022-12-18T13:48:16;29.30;;;13.20;;
17991;SDS011;9121;50.926;5.340;2022-12-18T13:50:47;39.50;;;14.83;;
17991;SDS011;9121;50.926;5.340;2022-12-18T13:53:20;33.63;;;14.47;;
17991;SDS011;9121;50.926;5.340;2022-12-18T13:55:50;32.97;;;14.63;;
17991;SDS011;9121;50.926;5.340;2022-12-18T13:58:17;49.53;;;15.23;;
17991;SDS011;9121;50.926;5.340;2022-12-18T14:00:45;34.20;;;15.10;;
17991;SDS011;9121;50.926;5.340;2022-12-18T14:03:20;30.70;;;15.17;;
17991;SDS011;9121;50.926;5.340;2022-12-18T14:05:52;32.90;;;15.20;;
17991;SDS011;9121;50.926;5.340;2022-12-18T14:08:27;28.77;;;14.53;;
17991;SDS011;9121;50.926;5.340;2022-12-18T14:10:59;32.97;;;14.43;;
17991;SDS011;9121;50.926;5.340;2022-12-18T14:13:28;32.93;;;15.47;;
17991;SDS011;9121;50.926;5.340;2022-12-18T14:15:58;46.70;;;16.10;;
17991;SDS011;9121;50.926;5.340;2022-12-18T14:18:29;35.43;;;15.73;;
17991;SDS011;9121;50.926;5.340;2022-12-18T14:21:03;37.40;;;16.40;;
17991;SDS011;9121;50.926;5.340;2022-12-18T14:23:33;33.63;;;15.93;;
17991;SDS011;9121;50.926;5.340;2022-12-18T14:26:01;31.87;;;15.53;;
17991;SDS011;9121;50.926;5.340;2022-12-18T14:28:29;37.10;;;16.63;;
17991;SDS011;9121;50.926;5.340;2022-12-18T14:30:58;33.93;;;15.50;;
17991;SDS011;9121;50.926;5.340;2022-12-18T14:33:26;38.20;;;17.07;;
17991;SDS011;9121;50.926;5.340;2022-12-18T14:35:54;35.10;;;15.07;;
17991;SDS011;9121;50.926;5.340;2022-12-18T14:38:24;49.83;;;17.00;;
17991;SDS011;9121;50.926;5.340;2022-12-18T14:40:54;32.93;;;15.70;;
17991;SDS011;9121;50.926;5.340;2022-12-18T14:43:23;36.87;;;15.53;;
17991;SDS011;9121;50.926;5.340;2022-12-18T14:45:50;35.47;;;15.50;;
17991;SDS011;9121;50.926;5.340;2022-12-18T14:48:19;37.83;;;16.03;;
17991;SDS011;9121;50.926;5.340;2022-12-18T14:50:57;34.47;;;14.77;;
17991;SDS011;9121;50.926;5.340;2022-12-18T14:53:32;35.13;;;16.40;;
17991;SDS011;9121;50.926;5.340;2022-12-18T14:56:01;36.70;;;16.30;;
17991;SDS011;9121;50.926;5.340;2022-12-18T14:58:29;36.73;;;16.60;;
17991;SDS011;9121;50.926;5.340;2022-12-18T15:00:56;36.33;;;17.30;;
17991;SDS011;9121;50.926;5.340;2022-12-18T15:03:25;37.43;;;17.47;;
17991;SDS011;9121;50.926;5.340;2022-12-18T15:05:52;35.73;;;16.33;;
17991;SDS011;9121;50.926;5.340;2022-12-18T15:08:27;38.10;;;18.13;;